Time;durP1;ratioP1;P1;durP2;ratioP2;P2;SDS_P1;SDS_P2;PMS_P1;PMS_P2;Temp;Humidity;BMP_temperature;BMP_pressure;BME280_temperature;BME280_humidity;BME280_pressure;Samples;Min_cycle;Max_cycle;Signal;HPM_P1;HPM_P2
2022/05/09 00:00:15;;;;;;;4.50;1.40;;;;;;;9.43;58.05;99564.31;5075474;28;20068;-72
2022/05/09 00:02:42;;;;;;;3.08;1.30;;;;;;;9.49;57.68;99563.00;5074215;28;20052;-72
2022/05/09 00:05:13;;;;;;;3.80;1.80;;;;;;;9.57;58.03;99559.44;5075081;28;20415;-72
2022/05/09 00:07:40;;;;;;;4.25;1.67;;;;;;;9.56;58.11;99568.91;5074888;28;20049;-72
2022/05/09 00:10:08;;;;;;;2.60;1.35;;;;;;;9.50;57.62;99573.00;5074849;28;20075;-72
2022/05/09 00:12:35;;;;;;;2.42;1.38;;;;;;;9.52;57.58;99573.47;5075152;28;20052;-64
2022/05/09 00:15:03;;;;;;;2.38;1.25;;;;;;;9.50;57.30;99578.56;5074808;28;20056;-64
2022/05/09 00:17:31;;;;;;;3.33;1.20;;;;;;;9.46;57.94;99574.78;5075105;28;20049;-65
2022/05/09 00:19:58;;;;;;;3.13;1.65;;;;;;;9.36;58.76;99572.31;5074939;28;20437;-65
2022/05/09 00:22:25;;;;;;;2.47;1.40;;;;;;;9.32;58.44;99578.50;5074616;28;20071;-65
2022/05/09 00:24:52;;;;;;;4.13;1.35;;;;;;;9.41;58.06;99572.16;5074914;28;20055;-65
2022/05/09 00:27:20;;;;;;;2.72;1.85;;;;;;;9.49;57.78;99571.34;5074806;28;20059;-65
2022/05/09 00:29:47;;;;;;;2.30;1.40;;;;;;;9.43;58.14;99576.25;5074896;28;20063;-65
2022/05/09 00:32:14;;;;;;;2.22;1.20;;;;;;;9.36;58.78;99566.75;5093692;28;20043;-64
2022/05/09 00:34:41;;;;;;;2.65;1.50;;;;;;;9.25;59.04;99567.09;5095024;28;20074;-64
2022/05/09 00:37:08;;;;;;;3.30;1.65;;;;;;;9.16;58.87;99571.78;5094948;28;20042;-64
2022/05/09 00:39:35;;;;;;;4.78;1.85;;;;;;;9.21;59.27;99566.06;5094842;28;20054;-64
2022/05/09 00:42:09;;;;;;;3.13;1.63;;;;;;;9.20;58.40;99567.22;5094913;28;20052;-64
2022/05/09 00:44:38;;;;;;;2.22;1.38;;;;;;;9.15;58.97;99564.59;5094866;28;20410;-64
2022/05/09 00:47:05;;;;;;;4.32;1.88;;;;;;;9.26;58.92;99568.72;5095254;28;20150;-63
2022/05/09 00:49:46;;;;;;;3.03;1.35;;;;;;;9.27;58.77;99573.09;5094759;28;20055;-64
2022/05/09 00:52:30;;;;;;;4.75;1.65;;;;;;;9.21;59.04;99584.69;5094586;28;20047;-64
2022/05/09 00:55:22;;;;;;;3.13;1.60;;;;;;;9.08;58.95;99572.56;5094791;28;20470;-64
2022/05/09 00:57:56;;;;;;;2.80;1.48;;;;;;;9.15;59.44;99575.69;5094454;28;20052;-65
2022/05/09 01:00:25;;;;;;;5.32;1.95;;;;;;;9.25;58.88;99578.19;5083632;28;20106;-64
2022/05/09 01:03:14;;;;;;;3.20;1.90;;;;;;;9.26;58.55;99571.47;5074013;28;20044;-64
2022/05/09 01:05:42;;;;;;;3.92;1.95;;;;;;;9.20;59.07;99575.53;5074368;28;20527;-64
2022/05/09 01:08:09;;;;;;;3.40;1.77;;;;;;;9.24;59.05;99579.31;5074031;28;20044;-70
2022/05/09 01:10:38;;;;;;;3.05;1.65;;;;;;;9.33;58.77;99577.38;5074228;28;20525;-70
2022/05/09 01:13:10;;;;;;;3.17;1.83;;;;;;;9.40;59.08;99576.06;5073680;28;20052;-69
2022/05/09 01:15:39;;;;;;;3.33;1.92;;;;;;;9.39;58.63;99574.44;5073437;28;20057;-69
2022/05/09 01:18:08;;;;;;;2.30;1.52;;;;;;;9.40;58.43;99576.91;5072311;28;20044;-70
2022/05/09 01:20:36;;;;;;;5.50;1.98;;;;;;;9.44;58.66;99571.53;5073766;28;20507;-70
2022/05/09 01:23:03;;;;;;;4.00;1.52;;;;;;;9.50;58.22;99581.31;5073498;28;20423;-69
2022/05/09 01:25:32;;;;;;;2.92;1.65;;;;;;;9.50;58.38;99576.56;5073862;28;20052;-70
2022/05/09 01:27:59;;;;;;;4.55;2.10;;;;;;;9.49;58.26;99568.56;5073425;28;20581;-70
2022/05/09 01:30:56;;;;;;;3.47;1.92;;;;;;;9.49;58.11;99574.94;5077800;28;20053;-70
2022/05/09 01:33:34;;;;;;;3.80;1.75;;;;;;;9.46;58.50;99567.28;5093821;28;20047;-69
2022/05/09 01:36:08;;;;;;;2.90;1.65;;;;;;;9.42;58.26;99562.69;5093810;28;20050;-70
2022/05/09 01:38:39;;;;;;;4.97;1.55;;;;;;;9.39;58.75;99563.34;5092248;28;20101;-70
2022/05/09 01:41:06;;;;;;;4.07;1.80;;;;;;;9.31;58.25;99576.06;5094055;28;20040;-70
2022/05/09 01:43:37;;;;;;;6.70;1.80;;;;;;;9.12;58.17;99576.34;5093580;28;20052;-70
2022/05/09 01:46:05;;;;;;;;;;;;;;;8.96;58.49;99575.16;5093854;28;20414;-70
2022/05/09 01:51:17;;;;;;;3.65;1.63;;;;;;;9.00;58.38;99578.13;5093580;28;20151;-70
2022/05/09 01:53:53;;;;;;;2.90;1.60;;;;;;;9.01;58.56;99590.84;5093240;28;20062;-71
2022/05/09 01:56:27;;;;;;;3.17;1.52;;;;;;;9.00;58.72;99590.00;5093316;28;20411;-70
2022/05/09 01:58:54;;;;;;;3.00;1.75;;;;;;;9.02;58.64;99592.47;5086141;28;20394;-69
2022/05/09 02:01:22;;;;;;;2.78;1.73;;;;;;;9.07;58.36;99586.78;5073323;28;20052;-70
2022/05/09 02:03:50;;;;;;;3.85;1.70;;;;;;;9.02;57.87;99589.69;5073061;28;20407;-70
2022/05/09 02:06:18;;;;;;;3.90;1.38;;;;;;;8.96;57.97;99600.13;5073102;28;20123;-70
2022/05/09 02:08:46;;;;;;;3.08;1.60;;;;;;;9.02;58.01;99607.16;5072716;28;20162;-70
2022/05/09 02:11:13;;;;;;;3.92;1.73;;;;;;;8.97;58.05;99596.19;5071856;28;20048;-69
2022/05/09 02:13:41;;;;;;;2.28;1.50;;;;;;;9.00;57.76;99594.75;5072643;28;20074;-70
2022/05/09 02:16:08;;;;;;;3.17;1.70;;;;;;;8.96;56.83;99594.56;5072804;28;20052;-70
2022/05/09 02:18:36;;;;;;;3.30;1.40;;;;;;;8.96;57.34;99588.19;5072825;28;20056;-70
2022/05/09 02:21:03;;;;;;;2.70;1.35;;;;;;;8.89;57.09;99587.84;5072608;28;20041;-69
2022/05/09 02:23:31;;;;;;;3.25;1.38;;;;;;;8.91;56.69;99586.38;5072650;28;20151;-70
2022/05/09 02:25:58;;;;;;;1.92;1.23;;;;;;;8.95;56.36;99583.78;5072306;28;20055;-71
2022/05/09 02:28:25;;;;;;;2.80;1.50;;;;;;;9.05;56.60;99589.88;5072693;28;20505;-69
2022/05/09 02:30:52;;;;;;;2.67;1.42;;;;;;;9.04;56.05;99585.47;5062221;28;20039;-69
2022/05/09 02:33:19;;;;;;;3.83;1.40;;;;;;;9.04;56.08;99579.91;5092870;28;20048;-71
2022/05/09 02:35:47;;;;;;;2.10;1.23;;;;;;;9.05;55.92;99576.00;5092887;28;20139;-71
2022/05/09 02:38:15;;;;;;;2.28;1.10;;;;;;;9.01;55.39;99569.47;5092615;28;20090;-70
2022/05/09 02:40:42;;;;;;;3.55;1.60;;;;;;;9.06;55.43;99563.75;5092890;28;20422;-70
2022/05/09 02:43:09;;;;;;;2.15;1.10;;;;;;;9.07;55.39;99565.41;5092529;28;20052;-70
2022/05/09 02:45:38;;;;;;;2.42;1.25;;;;;;;9.05;55.10;99587.09;5093051;28;20056;-71
2022/05/09 02:48:06;;;;;;;2.53;1.05;;;;;;;9.07;54.93;99584.81;5092434;28;20048;-71
2022/05/09 02:50:33;;;;;;;5.43;1.48;;;;;;;9.12;55.04;99586.63;5093319;28;20052;-71
2022/05/09 02:53:00;;;;;;;2.33;1.58;;;;;;;9.14;54.97;99585.16;5091186;28;20044;-70
2022/05/09 02:55:27;;;;;;;3.50;1.38;;;;;;;9.10;54.89;99581.41;5092888;28;20055;-70
2022/05/09 02:57:54;;;;;;;4.28;1.40;;;;;;;9.20;54.62;99583.88;5077166;28;20128;-70
2022/05/09 03:00:24;;;;;;;2.58;1.35;;;;;;;9.32;54.77;99588.78;5072780;28;20067;-71
2022/05/09 03:05:40;;;;;;;3.72;1.33;;;;;;;9.23;55.02;99597.09;5072491;28;20105;-70
2022/05/09 03:08:11;;;;;;;3.25;1.50;;;;;;;9.14;54.92;99585.16;5072759;28;20056;-70
2022/05/09 03:10:39;;;;;;;4.40;1.23;;;;;;;9.03;54.69;99583.81;5072371;28;20052;-70
2022/05/09 03:13:09;;;;;;;3.10;1.27;;;;;;;9.05;54.50;99587.09;5072514;28;20163;-70
2022/05/09 03:15:38;;;;;;;2.53;1.30;;;;;;;8.99;54.96;99580.06;5071166;28;20058;-69
2022/05/09 03:18:06;;;;;;;3.58;1.48;;;;;;;8.97;54.83;99584.28;5072124;28;20402;-70
2022/05/09 03:20:34;;;;;;;4.15;1.00;;;;;;;8.87;55.42;99585.41;5072137;28;20098;-70
2022/05/09 03:23:02;;;;;;;3.45;1.50;;;;;;;8.80;55.12;99596.13;5071846;28;20415;-69
2022/05/09 03:25:29;;;;;;;4.18;1.23;;;;;;;8.73;55.81;99594.94;5070726;28;20143;-70
2022/05/09 03:27:57;;;;;;;8.40;1.70;;;;;;;8.61;56.46;99598.31;5072137;28;20093;-70
2022/05/09 03:30:24;;;;;;;1.60;0.90;;;;;;;8.56;56.32;99600.44;5073919;28;20062;-70
2022/05/09 03:32:52;;;;;;;2.88;1.40;;;;;;;8.67;56.10;99597.06;5090824;28;20130;-70
2022/05/09 03:35:20;;;;;;;2.75;1.27;;;;;;;8.68;55.45;99604.22;5092070;28;20048;-70
2022/05/09 03:37:47;;;;;;;2.05;1.17;;;;;;;8.69;55.25;99603.09;5093610;28;20467;-70
2022/05/09 03:40:14;;;;;;;1.63;1.10;;;;;;;8.68;55.65;99609.75;5096129;28;20557;-70
2022/05/09 03:42:41;;;;;;;2.13;1.45;;;;;;;8.68;56.00;99606.19;5095768;28;20525;-70
2022/05/09 03:45:08;;;;;;;5.35;1.27;;;;;;;8.68;55.74;99598.69;5096031;28;20056;-71
2022/05/09 03:47:35;;;;;;;5.22;1.05;;;;;;;8.54;55.54;99600.75;5096190;28;20048;-69
2022/05/09 03:50:02;;;;;;;3.17;1.20;;;;;;;8.40;55.83;99597.22;5095915;28;20093;-70
2022/05/09 03:52:30;;;;;;;3.53;1.20;;;;;;;8.31;56.41;99607.44;5095804;28;20060;-71
2022/05/09 03:54:57;;;;;;;2.13;1.10;;;;;;;8.15;56.47;99606.16;5077462;28;20548;-71
2022/05/09 03:57:25;;;;;;;3.08;1.20;;;;;;;8.03;56.49;99608.69;5095990;28;20078;-71
2022/05/09 03:59:52;;;;;;;2.20;1.17;;;;;;;8.07;56.66;99617.16;5096085;28;20054;-70
2022/05/09 04:02:19;;;;;;;6.03;1.40;;;;;;;8.20;56.82;99613.53;5077501;28;20044;-70
2022/05/09 04:04:46;;;;;;;2.47;1.20;;;;;;;8.35;56.27;99605.66;5075055;28;20156;-70
2022/05/09 04:07:13;;;;;;;4.25;1.38;;;;;;;8.50;55.78;99615.56;5075474;28;20052;-70
2022/05/09 04:09:39;;;;;;;2.53;1.25;;;;;;;8.59;55.83;99608.91;5075199;28;20049;-71
2022/05/09 04:12:07;;;;;;;5.35;1.30;;;;;;;8.84;55.42;99611.00;5075206;28;20614;-70
2022/05/09 04:17:21;;;;;;;2.28;1.27;;;;;;;9.05;54.36;99620.41;5074956;28;20401;-70
2022/05/09 04:19:48;;;;;;;2.22;1.35;;;;;;;9.33;53.88;99621.78;5075138;28;20130;-70
2022/05/09 04:22:15;;;;;;;6.32;1.50;;;;;;;9.47;53.62;99610.53;5075067;28;20068;-70
2022/05/09 04:24:43;;;;;;;2.88;1.25;;;;;;;9.54;53.34;99624.78;5075131;28;20064;-64
2022/05/09 04:27:10;;;;;;;3.53;1.20;;;;;;;9.60;53.14;99615.16;5073810;28;20048;-64
2022/05/09 04:29:38;;;;;;;3.03;1.33;;;;;;;9.38;53.42;99622.78;5074954;28;20125;-64
2022/05/09 04:32:05;;;;;;;1.50;0.90;;;;;;;9.24;53.55;99614.59;5092424;28;20503;-64
2022/05/09 04:34:33;;;;;;;3.60;1.13;;;;;;;9.25;53.40;99624.53;5095031;28;20047;-65
2022/05/09 04:36:59;;;;;;;2.35;1.00;;;;;;;9.33;53.08;99627.34;5094904;28;20048;-64
2022/05/09 04:39:26;;;;;;;2.63;1.20;;;;;;;9.50;53.12;99625.75;5095214;28;20044;-63
2022/05/09 04:41:54;;;;;;;9.27;1.38;;;;;;;9.55;52.53;99625.59;5094876;28;20052;-64
2022/05/09 04:44:22;;;;;;;1.77;1.00;;;;;;;9.74;52.31;99620.56;5094684;28;20056;-64
2022/05/09 04:46:49;;;;;;;1.05;0.73;;;;;;;9.90;51.76;99635.59;5094948;28;20052;-64
2022/05/09 04:49:15;;;;;;;3.22;0.88;;;;;;;10.06;51.43;99632.00;5094203;28;20060;-64
2022/05/09 04:51:42;;;;;;;1.65;1.00;;;;;;;10.28;51.26;99636.63;5078193;28;20056;-64
2022/05/09 04:54:09;;;;;;;2.35;0.90;;;;;;;10.53;50.64;99635.75;5074743;28;20491;-64
2022/05/09 04:56:36;;;;;;;2.63;1.20;;;;;;;10.60;49.55;99633.31;5074224;28;20083;-64
2022/05/09 04:59:03;;;;;;;2.35;1.17;;;;;;;10.60;49.88;99636.09;5074279;28;20052;-64
2022/05/09 05:01:30;;;;;;;1.90;1.23;;;;;;;10.45;50.03;99636.59;5074530;28;20403;-64
2022/05/09 05:03:57;;;;;;;2.05;1.13;;;;;;;10.70;50.12;99633.78;5074309;28;20052;-64
2022/05/09 05:06:24;;;;;;;3.70;1.00;;;;;;;11.45;48.39;99621.81;5074110;28;20579;-64
2022/05/09 05:08:51;;;;;;;3.05;1.20;;;;;;;11.67;47.55;99624.34;5074432;28;20052;-64
2022/05/09 05:11:18;;;;;;;4.35;1.25;;;;;;;11.71;48.03;99625.31;5073833;28;20136;-64
2022/05/09 05:13:44;;;;;;;2.28;1.00;;;;;;;11.71;47.81;99624.47;5074614;28;20135;-64
2022/05/09 05:16:11;;;;;;;9.93;1.30;;;;;;;11.66;47.10;99636.63;5073788;28;20048;-65
2022/05/09 05:18:39;;;;;;;2.92;1.05;;;;;;;11.76;47.11;99633.47;5073545;28;20135;-64
2022/05/09 05:21:13;;;;;;;3.03;1.10;;;;;;;11.86;46.18;99638.63;5073790;28;20511;-64
2022/05/09 05:23:40;;;;;;;2.47;1.17;;;;;;;11.95;46.12;99644.97;5073390;28;20052;-64
2022/05/09 05:26:08;;;;;;;2.58;1.13;;;;;;;12.05;45.97;99647.34;5073861;28;20057;-65
2022/05/09 05:28:34;;;;;;;2.53;1.35;;;;;;;11.91;46.20;99640.41;5073525;28;20071;-65
2022/05/09 05:31:21;;;;;;;5.32;2.67;;;;;;;11.56;47.30;99645.38;5082488;28;20154;-65
2022/05/09 05:33:49;;;;;;;2.50;1.10;;;;;;;11.54;47.07;99647.66;5093668;28;20047;-65
2022/05/09 05:36:16;;;;;;;3.00;1.45;;;;;;;11.32;47.21;99650.75;5093606;28;20143;-64
2022/05/09 05:38:43;;;;;;;2.58;1.25;;;;;;;11.13;47.61;99649.50;5093393;28;20120;-64
2022/05/09 05:41:10;;;;;;;1.98;0.90;;;;;;;10.97;47.30;99652.03;5093772;28;20058;-64
2022/05/09 05:43:37;;;;;;;3.42;1.20;;;;;;;10.81;47.11;99659.28;5093670;28;20202;-65
2022/05/09 05:46:04;;;;;;;2.97;1.20;;;;;;;11.34;47.52;99662.34;5093653;28;20403;-65
2022/05/09 05:48:32;;;;;;;2.78;1.27;;;;;;;12.26;45.68;99659.31;5093640;28;20047;-65
2022/05/09 05:50:59;;;;;;;1.95;1.38;;;;;;;13.52;43.23;99662.25;5093647;28;20044;-63
2022/05/09 05:53:26;;;;;;;4.82;1.10;;;;;;;15.28;40.59;99649.53;5093479;28;20403;-64
2022/05/09 05:55:53;;;;;;;4.70;1.33;;;;;;;18.02;35.49;99649.66;5093587;28;20063;-64
2022/05/09 05:58:22;;;;;;;7.50;1.15;;;;;;;17.86;34.87;99649.81;5093078;28;20083;-64
2022/05/09 06:00:49;;;;;;;1.95;0.80;;;;;;;16.71;36.57;99658.94;5091475;28;20180;-71
2022/05/09 06:03:16;;;;;;;2.85;1.13;;;;;;;15.35;38.33;99658.13;5093137;28;20138;-72
2022/05/09 06:05:43;;;;;;;2.08;1.00;;;;;;;14.37;39.26;99649.78;5073872;28;20511;-71
2022/05/09 06:08:10;;;;;;;2.67;0.95;;;;;;;13.56;40.66;99660.41;5083028;28;20122;-71
2022/05/09 06:10:37;;;;;;;2.75;1.02;;;;;;;13.19;41.19;99665.13;5093315;28;20040;-71
2022/05/09 06:13:09;;;;;;;3.13;1.15;;;;;;;12.94;41.37;99671.81;5092870;28;20521;-71
2022/05/09 06:15:36;;;;;;;1.80;1.23;;;;;;;12.98;41.35;99663.53;5092786;28;20064;-71
2022/05/09 06:18:08;;;;;;;4.53;1.42;;;;;;;13.15;40.60;99674.56;5093020;28;20044;-71
2022/05/09 06:20:39;;;;;;;2.25;0.90;;;;;;;13.98;38.99;99658.97;5093083;28;20048;-70
2022/05/09 06:23:08;;;;;;;1.20;0.75;;;;;;;15.02;36.47;99666.06;5092890;28;20088;-71
2022/05/09 06:25:35;;;;;;;7.13;0.90;;;;;;;15.32;35.63;99669.25;5093284;28;20142;-72
2022/05/09 06:28:05;;;;;;;2.40;0.80;;;;;;;15.21;36.05;99671.78;5092722;28;20044;-71
2022/05/09 06:30:32;;;;;;;1.35;0.88;;;;;;;14.57;36.23;99671.19;5092895;28;20052;-70
2022/05/09 06:32:59;;;;;;;1.65;0.90;;;;;;;13.97;37.70;99674.91;5092702;28;20055;-72
2022/05/09 06:35:27;;;;;;;6.05;1.33;;;;;;;13.88;38.38;99668.63;5092976;28;20086;-71
2022/05/09 06:38:04;;;;;;;2.42;0.90;;;;;;;14.14;38.17;99669.06;5092854;28;20055;-71
2022/05/09 06:40:35;;;;;;;1.67;1.05;;;;;;;14.38;37.96;99679.41;5092554;28;20062;-71
2022/05/09 06:43:03;;;;;;;1.90;0.85;;;;;;;14.19;37.95;99680.03;5092996;28;20101;-70
2022/05/09 06:45:30;;;;;;;4.07;1.10;;;;;;;13.96;38.45;99689.25;5092810;28;20125;-71
2022/05/09 06:47:58;;;;;;;2.67;1.30;;;;;;;13.71;38.20;99677.25;5092733;28;20463;-72
2022/05/09 06:50:28;;;;;;;4.78;1.02;;;;;;;13.99;38.05;99688.53;5093045;28;20052;-71
2022/05/09 06:52:55;;;;;;;2.47;1.20;;;;;;;14.06;37.44;99685.97;5092468;28;20423;-71
2022/05/09 06:55:42;;;;;;;3.85;1.23;;;;;;;14.00;36.92;99681.78;5092111;28;20062;-65
2022/05/09 06:58:12;;;;;;;1.80;1.10;;;;;;;13.75;36.92;99691.38;5092449;28;20044;-64
2022/05/09 07:00:39;;;;;;;2.75;1.00;;;;;;;13.92;36.66;99682.75;5092924;28;20052;-64
2022/05/09 07:03:06;;;;;;;11.23;0.98;;;;;;;15.76;34.58;99687.63;5092558;28;20538;-64
2022/05/09 07:05:33;;;;;;;6.53;1.00;;;;;;;20.02;28.72;99676.56;5091135;28;20098;-64
2022/05/09 07:08:00;;;;;;;1.52;1.00;;;;;;;21.60;25.78;99678.91;5092259;28;20048;-64
2022/05/09 07:10:28;;;;;;;2.13;0.90;;;;;;;24.88;22.58;99678.81;5092798;28;20058;-64
2022/05/09 07:12:56;;;;;;;4.38;1.20;;;;;;;23.37;24.22;99680.16;5094373;28;20048;-66
2022/05/09 07:15:29;;;;;;;2.17;1.00;;;;;;;25.46;22.50;99687.00;5096928;28;20134;-65
2022/05/09 07:17:58;;;;;;;6.65;0.90;;;;;;;29.53;18.54;99671.22;5095287;28;20048;-67
2022/05/09 07:20:28;;;;;;;5.82;1.27;;;;;;;31.51;15.94;99666.66;5096867;28;20449;-65
2022/05/09 07:22:58;;;;;;;3.30;1.13;;;;;;;32.96;14.85;99673.66;5096432;28;20170;-65
2022/05/09 07:25:25;;;;;;;2.30;1.30;;;;;;;32.81;14.38;99661.94;5096463;28;20071;-65
2022/05/09 07:27:53;;;;;;;2.97;1.10;;;;;;;30.51;16.07;99670.00;5096247;28;20479;-65
2022/05/09 07:30:23;;;;;;;1.97;0.83;;;;;;;25.45;19.78;99668.31;5096518;28;20055;-65
2022/05/09 07:32:52;;;;;;;2.08;0.82;;;;;;;21.54;23.75;99674.03;5096201;28;20800;-64
2022/05/09 07:35:20;;;;;;;1.83;0.80;;;;;;;19.02;25.96;99673.16;5095311;28;20076;-64
2022/05/09 07:37:47;;;;;;;4.40;1.27;;;;;;;17.33;28.06;99684.66;5096314;28;20058;-64
2022/05/09 07:40:17;;;;;;;2.38;1.00;;;;;;;16.23;29.19;99700.38;5096273;28;20546;-64
2022/05/09 07:42:47;;;;;;;1.70;0.90;;;;;;;15.23;30.79;99694.66;5083964;28;20478;-64
2022/05/09 07:45:18;;;;;;;1.42;0.70;;;;;;;14.36;31.65;99692.94;5075435;28;20131;-64
2022/05/09 07:47:46;;;;;;;2.13;1.00;;;;;;;13.61;32.41;99693.69;5075569;28;20102;-64
2022/05/09 07:50:15;;;;;;;1.35;0.63;;;;;;;13.23;32.81;99698.78;5075687;28;20072;-64
2022/05/09 07:52:42;;;;;;;1.40;0.83;;;;;;;12.75;33.46;99699.41;5075565;28;20044;-65
2022/05/09 07:55:11;;;;;;;4.95;0.90;;;;;;;12.56;34.07;99696.31;5075275;28;20127;-64
2022/05/09 07:57:38;;;;;;;6.22;1.52;;;;;;;13.17;33.90;99700.16;5075626;28;20052;-64
2022/05/09 08:00:05;;;;;;;2.15;0.98;;;;;;;17.13;28.35;99699.13;5075405;28;20048;-64
2022/05/09 08:02:34;;;;;;;2.78;1.20;;;;;;;21.99;22.89;99690.28;5075365;28;20503;-64
2022/05/09 08:05:01;;;;;;;3.95;1.17;;;;;;;24.68;20.18;99686.38;5075375;28;20557;-63
2022/05/09 08:07:28;;;;;;;3.47;1.00;;;;;;;26.40;18.22;99678.16;5080699;28;20066;-64
2022/05/09 08:09:55;;;;;;;2.42;0.90;;;;;;;22.43;21.81;99676.44;5095868;28;20044;-64
2022/05/09 08:12:22;;;;;;;3.63;1.10;;;;;;;20.05;24.81;99676.59;5095348;28;20414;-64
2022/05/09 08:14:49;;;;;;;1.70;1.02;;;;;;;21.96;22.79;99665.59;5095669;28;20048;-64
2022/05/09 08:17:17;;;;;;;4.50;0.93;;;;;;;24.60;19.93;99667.75;5095471;28;20056;-64
2022/05/09 08:19:45;;;;;;;4.03;1.25;;;;;;;27.99;16.55;99670.66;5095081;28;20048;-64
2022/05/09 08:22:13;;;;;;;2.55;1.05;;;;;;;31.25;13.83;99668.06;5095448;28;20067;-65
2022/05/09 08:24:43;;;;;;;2.88;1.02;;;;;;;32.86;12.17;99675.72;5094022;28;20044;-65
2022/05/09 08:27:10;;;;;;;4.32;1.00;;;;;;;27.91;15.99;99686.38;5093869;28;20044;-64
2022/05/09 08:29:36;;;;;;;2.90;1.00;;;;;;;23.24;19.82;99691.19;5095047;28;20062;-64
2022/05/09 08:32:05;;;;;;;3.72;0.90;;;;;;;20.04;22.62;99696.75;5094996;28;20043;-65
2022/05/09 08:34:34;;;;;;;1.48;0.77;;;;;;;18.01;23.58;99698.72;5095096;28;20048;-64
2022/05/09 08:37:01;;;;;;;;;;;;;;;17.43;24.23;99700.94;5095192;28;20044;-64
2022/05/09 08:39:28;;;;;;;2.88;0.93;;;;;;;19.51;22.36;99688.63;5095277;28;19924;-68
2022/05/09 08:42:01;;;;;;;3.30;1.40;;;;;;;23.02;19.46;99689.66;5094831;28;20126;-68
2022/05/09 08:45:06;;;;;;;8.00;1.10;;;;;;;27.39;15.90;99697.81;5094872;28;20051;-65
2022/05/09 08:47:59;;;;;;;3.22;0.88;;;;;;;28.36;14.95;99690.94;5094458;28;20052;-65
2022/05/09 08:50:44;;;;;;;12.25;1.05;;;;;;;21.84;20.78;99728.31;5094533;28;20051;-65
2022/05/09 08:53:22;;;;;;;9.27;2.75;;;;;;;18.99;24.18;99731.16;5094374;28;20048;-69
2022/05/09 08:55:51;;;;;;;3.47;1.02;;;;;;;17.31;26.19;99734.00;5094607;28;20044;-64
2022/05/09 08:58:41;;;;;;;2.15;1.25;;;;;;;18.40;25.46;99745.22;5094273;28;20043;-65
2022/05/09 09:01:15;;;;;;;6.63;1.40;;;;;;;22.46;21.38;99738.00;5094275;28;20130;-65
2022/05/09 09:03:58;;;;;;;1.73;1.10;;;;;;;28.13;16.65;99734.03;5091789;28;20056;-64
2022/05/09 09:06:48;;;;;;;4.82;1.00;;;;;;;31.69;13.55;99727.97;5074064;28;20047;-65
2022/05/09 09:09:38;;;;;;;1.92;1.10;;;;;;;33.84;12.31;99728.00;5073922;28;20071;-65
2022/05/09 09:12:36;;;;;;;2.78;1.38;;;;;;;34.78;11.86;99733.97;5072646;28;20052;-65
2022/05/09 09:15:11;;;;;;;4.45;1.65;;;;;;;37.19;10.58;99728.41;5063172;28;20512;-65
2022/05/09 09:17:47;;;;;;;1.02;0.75;;;;;;;37.60;9.94;99724.94;5074186;28;20087;-65
2022/05/09 09:20:26;;;;;;;3.05;1.20;;;;;;;36.33;9.98;99734.88;5073505;28;20044;-64
2022/05/09 09:23:02;;;;;;;3.30;1.17;;;;;;;37.38;9.23;99718.09;5073218;28;20569;-65
2022/05/09 09:26:01;;;;;;;3.22;1.30;;;;;;;38.11;9.19;99719.09;5073505;28;20546;-65
2022/05/09 09:28:51;;;;;;;5.78;1.33;;;;;;;38.67;8.71;99720.28;5073663;28;20587;-64
2022/05/09 09:31:26;;;;;;;1.63;0.93;;;;;;;38.74;8.09;99710.28;5073514;28;20500;-65
2022/05/09 09:34:26;;;;;;;4.30;1.08;;;;;;;34.40;9.66;99712.88;5073648;28;20052;-65
2022/05/09 09:37:07;;;;;;;1.27;0.77;;;;;;;28.63;13.34;99727.88;5070664;28;20641;-66
2022/05/09 09:39:35;;;;;;;2.55;0.90;;;;;;;25.03;15.98;99714.44;5073196;28;20044;-65
2022/05/09 09:42:02;;;;;;;2.45;1.00;;;;;;;21.97;18.12;99726.72;5073260;28;20052;-66
2022/05/09 09:44:29;;;;;;;2.60;1.00;;;;;;;20.05;20.26;99737.91;5073376;28;20056;-65
2022/05/09 09:47:09;;;;;;;11.95;1.48;;;;;;;18.73;21.87;99734.00;5073309;28;20050;-65
2022/05/09 09:49:43;;;;;;;5.43;1.10;;;;;;;17.83;23.44;99735.00;5073661;28;20407;-66
2022/05/09 09:52:18;;;;;;;2.10;1.10;;;;;;;16.86;25.08;99739.53;5073153;28;20530;-65
2022/05/09 09:55:07;;;;;;;3.35;1.20;;;;;;;15.95;26.73;99739.03;5073166;28;20177;-65
2022/05/09 09:57:37;;;;;;;2.78;1.08;;;;;;;16.36;26.67;99721.56;5072918;28;20507;-66
2022/05/09 10:00:28;;;;;;;2.55;1.00;;;;;;;16.29;25.98;99741.03;5072838;28;20048;-65
2022/05/09 10:03:37;;;;;;;1.73;0.90;;;;;;;16.03;26.40;99740.84;5072864;28;20503;-65
2022/05/09 10:06:14;;;;;;;1.83;0.90;;;;;;;15.62;27.22;99737.75;5051369;28;20109;-65
2022/05/09 10:08:42;;;;;;;1.67;0.85;;;;;;;15.20;27.65;99739.38;5072582;28;20040;-65
2022/05/09 10:11:23;;;;;;;3.30;1.20;;;;;;;14.53;28.51;99762.63;5072702;28;20074;-66
2022/05/09 10:13:56;;;;;;;3.88;1.38;;;;;;;14.29;29.12;99757.91;5073212;28;20052;-64
2022/05/09 10:16:26;;;;;;;4.95;1.33;;;;;;;13.82;30.65;99767.09;5073123;28;20135;-64
2022/05/09 10:18:54;;;;;;;1.90;0.88;;;;;;;13.84;31.14;99776.78;5072632;28;20135;-64
2022/05/09 10:24:47;;;;;;;2.67;0.77;;;;;;;13.04;32.22;99780.31;5071230;28;20048;-66
2022/05/09 10:27:25;;;;;;;2.50;1.08;;;;;;;13.12;32.53;99790.59;5072498;28;20094;-66
2022/05/09 10:29:59;;;;;;;2.70;1.10;;;;;;;12.99;33.63;99793.66;5072503;28;20392;-65
2022/05/09 10:32:48;;;;;;;10.23;1.08;;;;;;;12.68;34.65;99806.03;5080543;28;20173;-65
2022/05/09 10:35:40;;;;;;;1.95;1.67;;;;;;;12.10;36.79;99797.72;5092609;28;20075;-65
2022/05/09 10:38:07;;;;;;;1.40;0.77;;;;;;;11.89;37.97;99791.28;5092651;28;20101;-66
2022/05/09 10:40:48;;;;;;;1.83;0.82;;;;;;;11.76;38.45;99789.53;5093096;28;20470;-66
2022/05/09 10:43:36;;;;;;;1.83;0.98;;;;;;;11.82;38.05;99793.78;5092537;28;20147;-66
2022/05/09 10:46:10;;;;;;;3.10;1.00;;;;;;;11.81;37.98;99792.13;5092673;28;20083;-64
2022/05/09 10:48:59;;;;;;;3.15;0.77;;;;;;;12.02;38.15;99784.63;5092203;28;20066;-67
2022/05/09 10:51:35;;;;;;;1.75;0.70;;;;;;;11.93;38.26;99797.81;5092702;28;20051;-66
2022/05/09 10:54:25;;;;;;;1.80;0.90;;;;;;;11.66;39.10;99794.66;5092664;28;20063;-65
2022/05/09 10:57:17;;;;;;;2.03;0.98;;;;;;;11.80;40.08;99806.41;5085947;28;20072;-71
2022/05/09 11:00:12;;;;;;;5.00;1.15;;;;;;;11.97;39.86;99811.91;5072465;28;20045;-71
2022/05/09 11:02:56;;;;;;;2.88;1.10;;;;;;;12.32;39.27;99802.19;5054370;28;20470;-71
2022/05/09 11:05:26;;;;;;;4.93;1.40;;;;;;;12.14;40.76;99815.41;5072130;28;20075;-71
2022/05/09 11:08:08;;;;;;;3.88;0.80;;;;;;;11.48;42.71;99832.03;5072387;28;20056;-71
2022/05/09 11:10:56;;;;;;;5.15;1.27;;;;;;;10.68;46.65;99857.81;5077079;28;20506;-71
2022/05/09 11:13:37;;;;;;;4.03;1.27;;;;;;;9.19;50.21;99870.91;5092588;28;20048;-71
2022/05/09 11:16:13;;;;;;;4.30;1.40;;;;;;;9.01;51.79;99865.53;5092702;28;20140;-71
2022/05/09 11:19:09;;;;;;;2.95;1.23;;;;;;;8.77;52.67;99848.34;5092860;28;20069;-72
2022/05/09 11:21:47;;;;;;;4.25;1.15;;;;;;;8.85;53.43;99869.78;5092589;28;20052;-70
2022/05/09 11:24:30;;;;;;;7.63;1.50;;;;;;;8.94;53.68;99879.81;5092355;28;20519;-71
2022/05/09 11:27:12;;;;;;;2.05;1.27;;;;;;;9.08;53.23;99874.22;5092233;28;20056;-71
2022/05/09 11:30:08;;;;;;;1.83;1.08;;;;;;;9.13;53.85;99858.28;5092083;28;20052;-70
2022/05/09 11:32:43;;;;;;;3.30;0.93;;;;;;;8.99;53.71;99857.50;5092248;28;20079;-70
2022/05/09 11:35:44;;;;;;;3.33;1.02;;;;;;;8.83;53.98;99856.22;5092095;28;20052;-70
2022/05/09 11:38:58;;;;;;;1.92;1.20;;;;;;;8.97;53.82;99862.56;5069869;28;20066;-71
2022/05/09 11:41:54;;;;;;;2.40;1.15;;;;;;;9.03;53.66;99854.94;5049912;28;20063;-70
2022/05/09 11:44:38;;;;;;;3.40;1.48;;;;;;;9.13;54.14;99847.19;5050155;28;20060;-70
2022/05/09 11:47:50;;;;;;;7.07;1.83;;;;;;;9.03;54.75;99852.97;5049502;28;20076;-70
2022/05/09 11:50:30;;;;;;;4.03;1.30;;;;;;;9.21;54.26;99863.06;5005894;28;20053;-70
2022/05/09 11:53:01;;;;;;;5.30;1.73;;;;;;;9.54;54.39;99854.44;5009917;28;20145;-71
2022/05/09 11:55:27;;;;;;;2.78;1.40;;;;;;;9.88;54.02;99846.28;5009948;28;20124;-70
2022/05/09 11:57:58;;;;;;;2.83;1.73;;;;;;;10.16;54.00;99858.84;5010015;28;20069;-72
2022/05/09 12:00:25;;;;;;;4.60;1.70;;;;;;;10.45;52.64;99853.53;5010635;28;20060;-65
2022/05/09 12:02:56;;;;;;;2.83;1.10;;;;;;;10.53;52.68;99856.31;4994230;28;20146;-65
2022/05/09 12:05:25;;;;;;;5.47;1.60;;;;;;;10.36;52.72;99856.28;4978590;28;20077;-65
2022/05/09 12:08:07;;;;;;;3.15;1.60;;;;;;;10.31;53.72;99859.22;4974157;28;20137;-70
2022/05/09 12:10:38;;;;;;;3.67;2.17;;;;;;;10.34;53.16;99849.41;4974379;28;20057;-72